Terminal Aerodrome Forecast
Issued by NWS

Home | Current Version | Previous Version | Text Only | Print | Product List | Glossary On
Versions: 1 2 3 4 5 6 7 8 9 10 11 12 13 14 15 16 17 18 19 20
788
FTUS42 KJAX 052339
TAFCRG
TAF
KCRG 052339Z 0600/0624 12006KT P6SM FEW060 BKN120 BKN200
     FM060600 18008KT 4SM RA OVC010
     FM061000 21012G18KT 4SM BR OVC004
      TEMPO 0610/0614 2SM -TSRA BKN004 OVC015CB
     FM061400 21015G25KT 5SM RA OVC015
      TEMPO 0614/0618 2SM -TSRA OVC010CB=

USA.gov is the U.S. government's official web portal to all federal, state and local government web resources and services.